Terminal Aerodrome Forecast
Issued by NWS

Home | Current Version | Previous Version | Text Only | Print | Product List | Glossary On
Versions: 1 2 3 4 5 6 7 8 9 10 11 12
943
FTUS44 KEPZ 221140
TAFLRU
TAF
KLRU 221140Z 2212/2312 26005KT P6SM FEW250
     FM222100 24010G15KT P6SM SCT250
     FM230100 24013KT P6SM BKN250=

USA.gov is the U.S. government's official web portal to all federal, state and local government web resources and services.